sensor_id;sensor_type;location;lat;lon;timestamp;pressure;altitude;pressure_sealevel;temperature;humidity
51067;BME280;37112;45.892;-123.962;2023-03-21T00:01:13;100847.99;;;9.37;91.29
51067;BME280;37112;45.892;-123.962;2023-03-21T00:03:28;100845.83;;;9.37;91.16
51067;BME280;37112;45.892;-123.962;2023-03-21T00:05:43;100845.14;;;9.40;91.25
51067;BME280;37112;45.892;-123.962;2023-03-21T00:07:59;100846.27;;;9.44;91.60
51067;BME280;37112;45.892;-123.962;2023-03-21T00:10:13;100846.52;;;9.46;91.21
51067;BME280;37112;45.892;-123.962;2023-03-21T00:12:41;100849.14;;;9.50;91.43
51067;BME280;37112;45.892;-123.962;2023-03-21T00:14:55;100849.52;;;9.55;91.55
51067;BME280;37112;45.892;-123.962;2023-03-21T00:17:14;100852.21;;;9.61;91.77
51067;BME280;37112;45.892;-123.962;2023-03-21T00:19:27;100855.83;;;9.65;91.70
51067;BME280;37112;45.892;-123.962;2023-03-21T00:21:40;100858.13;;;9.68;91.45
51067;BME280;37112;45.892;-123.962;2023-03-21T00:24:11;100856.68;;;9.68;91.21
51067;BME280;37112;45.892;-123.962;2023-03-21T00:26:24;100854.23;;;9.68;91.06
51067;BME280;37112;45.892;-123.962;2023-03-21T00:28:38;100854.34;;;9.69;91.10
51067;BME280;37112;45.892;-123.962;2023-03-21T00:30:58;100856.45;;;9.69;90.94
51067;BME280;37112;45.892;-123.962;2023-03-21T00:33:12;100854.84;;;9.70;90.92
51067;BME280;37112;45.892;-123.962;2023-03-21T00:35:33;100854.33;;;9.72;91.11
51067;BME280;37112;45.892;-123.962;2023-03-21T00:38:07;100850.99;;;9.74;91.22
51067;BME280;37112;45.892;-123.962;2023-03-21T00:40:21;100850.30;;;9.77;91.18
51067;BME280;37112;45.892;-123.962;2023-03-21T00:42:43;100851.52;;;9.77;90.98
51067;BME280;37112;45.892;-123.962;2023-03-21T00:44:56;100852.50;;;9.76;90.78
51067;BME280;37112;45.892;-123.962;2023-03-21T00:47:12;100856.84;;;9.74;90.62
51067;BME280;37112;45.892;-123.962;2023-03-21T00:49:25;100854.38;;;9.68;90.34
51067;BME280;37112;45.892;-123.962;2023-03-21T00:51:42;100855.14;;;9.59;90.02
51067;BME280;37112;45.892;-123.962;2023-03-21T00:53:57;100860.06;;;9.51;89.92
51067;BME280;37112;45.892;-123.962;2023-03-21T00:56:11;100867.20;;;9.47;90.27
51067;BME280;37112;45.892;-123.962;2023-03-21T00:58:24;100870.40;;;9.41;90.11
51067;BME280;37112;45.892;-123.962;2023-03-21T01:00:37;100867.46;;;9.34;90.26
51067;BME280;37112;45.892;-123.962;2023-03-21T01:02:50;100869.31;;;9.30;90.38
51067;BME280;37112;45.892;-123.962;2023-03-21T01:05:23;100866.47;;;9.30;90.83
51067;BME280;37112;45.892;-123.962;2023-03-21T01:07:50;100868.65;;;9.29;90.89
51067;BME280;37112;45.892;-123.962;2023-03-21T01:10:04;100867.04;;;9.27;91.09
51067;BME280;37112;45.892;-123.962;2023-03-21T01:12:17;100866.58;;;9.25;91.16
51067;BME280;37112;45.892;-123.962;2023-03-21T01:14:31;100865.83;;;9.26;91.45
51067;BME280;37112;45.892;-123.962;2023-03-21T01:16:45;100866.95;;;9.28;91.37
51067;BME280;37112;45.892;-123.962;2023-03-21T01:18:58;100866.92;;;9.29;91.31
51067;BME280;37112;45.892;-123.962;2023-03-21T01:21:16;100865.13;;;9.29;91.29
51067;BME280;37112;45.892;-123.962;2023-03-21T01:23:30;100865.48;;;9.26;90.84
51067;BME280;37112;45.892;-123.962;2023-03-21T01:25:46;100867.69;;;9.22;90.93
51067;BME280;37112;45.892;-123.962;2023-03-21T01:28:00;100868.88;;;9.23;91.11
51067;BME280;37112;45.892;-123.962;2023-03-21T01:30:15;100870.70;;;9.21;91.19
51067;BME280;37112;45.892;-123.962;2023-03-21T01:32:32;100872.23;;;9.19;91.08
51067;BME280;37112;45.892;-123.962;2023-03-21T01:34:46;100871.10;;;9.18;91.21
51067;BME280;37112;45.892;-123.962;2023-03-21T01:36:59;100874.95;;;9.15;91.06
51067;BME280;37112;45.892;-123.962;2023-03-21T01:39:17;100878.06;;;9.14;90.84
51067;BME280;37112;45.892;-123.962;2023-03-21T01:41:33;100876.13;;;9.10;90.79
51067;BME280;37112;45.892;-123.962;2023-03-21T01:43:58;100876.80;;;9.11;90.96
51067;BME280;37112;45.892;-123.962;2023-03-21T01:46:34;100880.21;;;9.10;91.04
51067;BME280;37112;45.892;-123.962;2023-03-21T01:49:17;100879.82;;;9.08;90.97
51067;BME280;37112;45.892;-123.962;2023-03-21T01:51:49;100881.17;;;9.06;90.85
51067;BME280;37112;45.892;-123.962;2023-03-21T01:54:07;100884.88;;;9.03;90.78
51067;BME280;37112;45.892;-123.962;2023-03-21T01:56:26;100887.59;;;8.99;90.65
51067;BME280;37112;45.892;-123.962;2023-03-21T01:58:44;100888.40;;;8.95;90.54
51067;BME280;37112;45.892;-123.962;2023-03-21T02:01:24;100894.04;;;8.92;90.68
51067;BME280;37112;45.892;-123.962;2023-03-21T02:03:39;100894.34;;;8.90;90.65
51067;BME280;37112;45.892;-123.962;2023-03-21T02:06:35;100894.27;;;8.88;90.70
51067;BME280;37112;45.892;-123.962;2023-03-21T02:09:10;100894.74;;;8.86;90.78
51067;BME280;37112;45.892;-123.962;2023-03-21T02:11:26;100897.15;;;8.84;90.81
51067;BME280;37112;45.892;-123.962;2023-03-21T02:13:41;100899.31;;;8.84;90.96
51067;BME280;37112;45.892;-123.962;2023-03-21T02:16:01;100902.92;;;8.82;90.88
51067;BME280;37112;45.892;-123.962;2023-03-21T02:18:23;100903.69;;;8.81;90.91
51067;BME280;37112;45.892;-123.962;2023-03-21T02:24:13;100906.27;;;8.79;90.83
51067;BME280;37112;45.892;-123.962;2023-03-21T02:29:34;100910.80;;;8.81;90.87
51067;BME280;37112;45.892;-123.962;2023-03-21T02:31:55;100913.61;;;8.78;90.61
51067;BME280;37112;45.892;-123.962;2023-03-21T02:34:53;100913.94;;;8.75;90.52
51067;BME280;37112;45.892;-123.962;2023-03-21T02:37:22;100918.94;;;8.75;90.77
51067;BME280;37112;45.892;-123.962;2023-03-21T02:39:52;100919.64;;;8.75;90.76
51067;BME280;37112;45.892;-123.962;2023-03-21T02:42:10;100923.84;;;8.76;90.83
51067;BME280;37112;45.892;-123.962;2023-03-21T02:44:32;100924.54;;;8.76;90.93
51067;BME280;37112;45.892;-123.962;2023-03-21T02:46:50;100923.38;;;8.77;90.95
51067;BME280;37112;45.892;-123.962;2023-03-21T02:49:19;100919.66;;;8.77;90.87
51067;BME280;37112;45.892;-123.962;2023-03-21T02:51:35;100921.74;;;8.78;90.86
51067;BME280;37112;45.892;-123.962;2023-03-21T02:53:51;100927.51;;;8.80;90.86
51067;BME280;37112;45.892;-123.962;2023-03-21T02:56:28;100925.28;;;8.82;90.80
51067;BME280;37112;45.892;-123.962;2023-03-21T02:58:47;100925.58;;;8.82;90.87
51067;BME280;37112;45.892;-123.962;2023-03-21T03:01:03;100928.22;;;8.82;90.82
51067;BME280;37112;45.892;-123.962;2023-03-21T03:03:23;100932.09;;;8.83;90.67
51067;BME280;37112;45.892;-123.962;2023-03-21T03:05:47;100930.88;;;8.83;90.58
51067;BME280;37112;45.892;-123.962;2023-03-21T03:08:14;100931.30;;;8.82;90.55
51067;BME280;37112;45.892;-123.962;2023-03-21T03:10:58;100933.10;;;8.81;90.34
51067;BME280;37112;45.892;-123.962;2023-03-21T03:13:28;100935.14;;;8.79;90.31
51067;BME280;37112;45.892;-123.962;2023-03-21T03:15:54;100934.71;;;8.77;90.29
51067;BME280;37112;45.892;-123.962;2023-03-21T03:18:16;100935.05;;;8.78;90.37
51067;BME280;37112;45.892;-123.962;2023-03-21T03:20:42;100940.19;;;8.78;90.25
51067;BME280;37112;45.892;-123.962;2023-03-21T03:23:04;100943.09;;;8.77;90.02
51067;BME280;37112;45.892;-123.962;2023-03-21T03:25:28;100945.17;;;8.74;90.09
51067;BME280;37112;45.892;-123.962;2023-03-21T03:27:55;100946.52;;;8.72;90.05
51067;BME280;37112;45.892;-123.962;2023-03-21T03:30:16;100949.38;;;8.72;89.94
51067;BME280;37112;45.892;-123.962;2023-03-21T03:33:03;100954.27;;;8.73;90.05
51067;BME280;37112;45.892;-123.962;2023-03-21T03:35:20;100955.25;;;8.75;90.02
51067;BME280;37112;45.892;-123.962;2023-03-21T03:37:36;100955.81;;;8.74;89.79
51067;BME280;37112;45.892;-123.962;2023-03-21T03:39:56;100959.74;;;8.74;89.96
51067;BME280;37112;45.892;-123.962;2023-03-21T03:42:17;100962.71;;;8.71;90.04
51067;BME280;37112;45.892;-123.962;2023-03-21T03:44:47;100965.46;;;8.66;90.18
51067;BME280;37112;45.892;-123.962;2023-03-21T03:47:03;100968.80;;;8.60;90.00
51067;BME280;37112;45.892;-123.962;2023-03-21T03:49:20;100972.48;;;8.54;89.96
51067;BME280;37112;45.892;-123.962;2023-03-21T03:51:38;100980.83;;;8.47;89.84
51067;BME280;37112;45.892;-123.962;2023-03-21T03:54:21;100983.39;;;8.39;89.96
51067;BME280;37112;45.892;-123.962;2023-03-21T03:56:38;100985.67;;;8.32;90.25
51067;BME280;37112;45.892;-123.962;2023-03-21T03:58:51;100991.73;;;8.28;90.25
51067;BME280;37112;45.892;-123.962;2023-03-21T04:01:12;100991.33;;;8.26;90.49
51067;BME280;37112;45.892;-123.962;2023-03-21T04:03:26;100991.90;;;8.25;90.53
51067;BME280;37112;45.892;-123.962;2023-03-21T04:05:56;100989.77;;;8.25;90.68
51067;BME280;37112;45.892;-123.962;2023-03-21T04:08:10;100991.95;;;8.24;90.83
51067;BME280;37112;45.892;-123.962;2023-03-21T04:10:24;100991.26;;;8.24;90.63
51067;BME280;37112;45.892;-123.962;2023-03-21T04:12:38;100991.81;;;8.23;90.84
51067;BME280;37112;45.892;-123.962;2023-03-21T04:15:12;100990.33;;;8.22;91.47
51067;BME280;37112;45.892;-123.962;2023-03-21T04:17:29;100993.34;;;8.18;91.71
51067;BME280;37112;45.892;-123.962;2023-03-21T04:19:42;100993.67;;;8.15;92.11
51067;BME280;37112;45.892;-123.962;2023-03-21T04:21:56;100994.27;;;8.10;91.89
51067;BME280;37112;45.892;-123.962;2023-03-21T04:24:10;100996.96;;;8.06;91.73
51067;BME280;37112;45.892;-123.962;2023-03-21T04:26:24;101000.52;;;8.03;91.61
51067;BME280;37112;45.892;-123.962;2023-03-21T04:29:01;101004.17;;;8.00;91.77
51067;BME280;37112;45.892;-123.962;2023-03-21T04:31:44;101006.22;;;7.98;92.10
51067;BME280;37112;45.892;-123.962;2023-03-21T04:34:00;101009.17;;;7.96;92.23
51067;BME280;37112;45.892;-123.962;2023-03-21T04:36:14;101010.36;;;7.94;92.28
51067;BME280;37112;45.892;-123.962;2023-03-21T04:38:38;101012.70;;;7.93;92.45
51067;BME280;37112;45.892;-123.962;2023-03-21T04:40:51;101017.61;;;7.90;92.67
51067;BME280;37112;45.892;-123.962;2023-03-21T04:43:04;101015.55;;;7.89;92.79
51067;BME280;37112;45.892;-123.962;2023-03-21T04:45:24;101016.44;;;7.89;92.85
51067;BME280;37112;45.892;-123.962;2023-03-21T04:47:37;101016.89;;;7.90;93.04
51067;BME280;37112;45.892;-123.962;2023-03-21T04:49:51;101014.91;;;7.91;93.10
51067;BME280;37112;45.892;-123.962;2023-03-21T04:52:05;101014.05;;;7.91;92.95
51067;BME280;37112;45.892;-123.962;2023-03-21T04:54:18;101016.70;;;7.91;92.97
51067;BME280;37112;45.892;-123.962;2023-03-21T04:56:32;101017.33;;;7.92;92.93
51067;BME280;37112;45.892;-123.962;2023-03-21T04:58:46;101016.25;;;7.93;93.13
51067;BME280;37112;45.892;-123.962;2023-03-21T05:01:00;101016.45;;;7.92;93.03
51067;BME280;37112;45.892;-123.962;2023-03-21T05:03:15;101019.10;;;7.89;92.54
51067;BME280;37112;45.892;-123.962;2023-03-21T05:05:29;101023.36;;;7.82;91.96
51067;BME280;37112;45.892;-123.962;2023-03-21T05:07:43;101028.28;;;7.75;91.61
51067;BME280;37112;45.892;-123.962;2023-03-21T05:09:56;101028.61;;;7.69;91.51
51067;BME280;37112;45.892;-123.962;2023-03-21T05:12:15;101027.30;;;7.63;91.47
51067;BME280;37112;45.892;-123.962;2023-03-21T05:14:28;101029.98;;;7.59;91.46
51067;BME280;37112;45.892;-123.962;2023-03-21T05:16:44;101028.73;;;7.56;91.63
51067;BME280;37112;45.892;-123.962;2023-03-21T05:19:03;101028.77;;;7.55;91.62
51067;BME280;37112;45.892;-123.962;2023-03-21T05:21:18;101027.02;;;7.55;91.76
51067;BME280;37112;45.892;-123.962;2023-03-21T05:23:32;101025.02;;;7.57;91.85
51067;BME280;37112;45.892;-123.962;2023-03-21T05:25:51;101024.92;;;7.58;91.96
51067;BME280;37112;45.892;-123.962;2023-03-21T05:28:20;101024.83;;;7.60;91.93
51067;BME280;37112;45.892;-123.962;2023-03-21T05:30:34;101024.73;;;7.62;91.93
51067;BME280;37112;45.892;-123.962;2023-03-21T05:32:48;101024.83;;;7.64;92.16
51067;BME280;37112;45.892;-123.962;2023-03-21T05:35:01;101029.10;;;7.66;92.13
51067;BME280;37112;45.892;-123.962;2023-03-21T05:37:14;101030.21;;;7.68;92.16
51067;BME280;37112;45.892;-123.962;2023-03-21T05:39:29;101032.80;;;7.70;92.24
51067;BME280;37112;45.892;-123.962;2023-03-21T05:41:50;101034.02;;;7.70;91.85
51067;BME280;37112;45.892;-123.962;2023-03-21T05:44:05;101035.91;;;7.68;91.56
51067;BME280;37112;45.892;-123.962;2023-03-21T05:46:19;101039.02;;;7.66;91.53
51067;BME280;37112;45.892;-123.962;2023-03-21T05:48:34;101042.02;;;7.66;91.58
51067;BME280;37112;45.892;-123.962;2023-03-21T05:50:55;101045.10;;;7.68;91.91
51067;BME280;37112;45.892;-123.962;2023-03-21T05:53:08;101038.81;;;7.69;91.63
51067;BME280;37112;45.892;-123.962;2023-03-21T05:55:26;101043.74;;;7.74;91.83
51067;BME280;37112;45.892;-123.962;2023-03-21T05:57:40;101045.38;;;7.76;91.90
51067;BME280;37112;45.892;-123.962;2023-03-21T06:00:11;101048.77;;;7.79;92.06
51067;BME280;37112;45.892;-123.962;2023-03-21T06:02:24;101047.35;;;7.83;92.12
51067;BME280;37112;45.892;-123.962;2023-03-21T06:04:41;101053.21;;;7.86;92.02
51067;BME280;37112;45.892;-123.962;2023-03-21T06:06:55;101052.61;;;7.87;91.92
51067;BME280;37112;45.892;-123.962;2023-03-21T06:09:08;101049.51;;;7.89;91.79
51067;BME280;37112;45.892;-123.962;2023-03-21T06:11:26;101053.64;;;7.91;91.77
51067;BME280;37112;45.892;-123.962;2023-03-21T06:14:10;101051.22;;;7.90;91.31
51067;BME280;37112;45.892;-123.962;2023-03-21T06:16:24;101052.23;;;7.88;91.12
51067;BME280;37112;45.892;-123.962;2023-03-21T06:18:38;101051.68;;;7.88;91.12
51067;BME280;37112;45.892;-123.962;2023-03-21T06:21:21;101046.07;;;7.87;91.14
51067;BME280;37112;45.892;-123.962;2023-03-21T06:23:36;101045.39;;;7.87;91.02
51067;BME280;37112;45.892;-123.962;2023-03-21T06:25:49;101040.41;;;7.87;90.97
51067;BME280;37112;45.892;-123.962;2023-03-21T06:28:05;101043.80;;;7.87;90.77
51067;BME280;37112;45.892;-123.962;2023-03-21T06:30:21;101046.04;;;7.84;90.49
51067;BME280;37112;45.892;-123.962;2023-03-21T06:32:41;101044.55;;;7.82;90.47
51067;BME280;37112;45.892;-123.962;2023-03-21T06:34:57;101044.63;;;7.80;90.31
51067;BME280;37112;45.892;-123.962;2023-03-21T06:37:10;101043.53;;;7.78;90.40
51067;BME280;37112;45.892;-123.962;2023-03-21T06:39:24;101044.67;;;7.76;90.23
51067;BME280;37112;45.892;-123.962;2023-03-21T06:41:37;101043.17;;;7.74;90.30
51067;BME280;37112;45.892;-123.962;2023-03-21T06:43:50;101048.02;;;7.73;90.31
51067;BME280;37112;45.892;-123.962;2023-03-21T06:46:03;101048.71;;;7.70;90.17
51067;BME280;37112;45.892;-123.962;2023-03-21T06:48:17;101046.06;;;7.66;90.17
51067;BME280;37112;45.892;-123.962;2023-03-21T06:50:31;101043.02;;;7.63;90.09
51067;BME280;37112;45.892;-123.962;2023-03-21T06:52:44;101042.56;;;7.62;90.27
51067;BME280;37112;45.892;-123.962;2023-03-21T06:54:57;101041.05;;;7.61;90.19
51067;BME280;37112;45.892;-123.962;2023-03-21T06:57:12;101037.84;;;7.58;90.15
51067;BME280;37112;45.892;-123.962;2023-03-21T06:59:25;101037.41;;;7.55;90.29
51067;BME280;37112;45.892;-123.962;2023-03-21T07:01:42;101037.33;;;7.53;90.38
51067;BME280;37112;45.892;-123.962;2023-03-21T07:03:55;101037.25;;;7.51;90.35
51067;BME280;37112;45.892;-123.962;2023-03-21T07:06:10;101038.09;;;7.49;90.48
51067;BME280;37112;45.892;-123.962;2023-03-21T07:08:23;101036.38;;;7.48;90.55
51067;BME280;37112;45.892;-123.962;2023-03-21T07:10:39;101037.35;;;7.46;90.59
51067;BME280;37112;45.892;-123.962;2023-03-21T07:12:54;101036.02;;;7.44;90.58
51067;BME280;37112;45.892;-123.962;2023-03-21T07:15:17;101038.66;;;7.44;90.77
51067;BME280;37112;45.892;-123.962;2023-03-21T07:17:32;101035.50;;;7.44;90.68
51067;BME280;37112;45.892;-123.962;2023-03-21T07:19:46;101033.34;;;7.45;90.85
51067;BME280;37112;45.892;-123.962;2023-03-21T07:22:00;101035.29;;;7.45;90.86
51067;BME280;37112;45.892;-123.962;2023-03-21T07:24:12;101036.52;;;7.44;90.83
51067;BME280;37112;45.892;-123.962;2023-03-21T07:26:25;101033.14;;;7.45;90.72
51067;BME280;37112;45.892;-123.962;2023-03-21T07:28:39;101032.10;;;7.45;90.65
51067;BME280;37112;45.892;-123.962;2023-03-21T07:30:57;101030.58;;;7.44;90.61
51067;BME280;37112;45.892;-123.962;2023-03-21T07:33:11;101028.33;;;7.43;90.51
51067;BME280;37112;45.892;-123.962;2023-03-21T07:35:25;101028.60;;;7.41;90.34
51067;BME280;37112;45.892;-123.962;2023-03-21T07:37:38;101027.10;;;7.39;90.30
51067;BME280;37112;45.892;-123.962;2023-03-21T07:39:54;101026.09;;;7.37;90.30
51067;BME280;37112;45.892;-123.962;2023-03-21T07:42:07;101022.98;;;7.36;90.26
51067;BME280;37112;45.892;-123.962;2023-03-21T07:44:21;101022.54;;;7.35;90.26
51067;BME280;37112;45.892;-123.962;2023-03-21T07:46:43;101017.64;;;7.34;90.27
51067;BME280;37112;45.892;-123.962;2023-03-21T07:48:57;101017.17;;;7.33;90.44
51067;BME280;37112;45.892;-123.962;2023-03-21T07:51:11;101016.85;;;7.32;90.43
51067;BME280;37112;45.892;-123.962;2023-03-21T07:53:24;101019.91;;;7.31;90.42
51067;BME280;37112;45.892;-123.962;2023-03-21T07:55:38;101018.98;;;7.28;90.37
51067;BME280;37112;45.892;-123.962;2023-03-21T07:57:53;101019.71;;;7.24;90.16
51067;BME280;37112;45.892;-123.962;2023-03-21T08:00:07;101021.27;;;7.21;90.24
51067;BME280;37112;45.892;-123.962;2023-03-21T08:02:23;101018.66;;;7.17;90.11
51067;BME280;37112;45.892;-123.962;2023-03-21T08:04:36;101024.20;;;7.15;90.23
51067;BME280;37112;45.892;-123.962;2023-03-21T08:06:51;101021.46;;;7.13;90.16
51067;BME280;37112;45.892;-123.962;2023-03-21T08:09:04;101021.60;;;7.11;90.18
51067;BME280;37112;45.892;-123.962;2023-03-21T08:11:18;101021.32;;;7.09;90.21
51067;BME280;37112;45.892;-123.962;2023-03-21T08:13:31;101020.50;;;7.08;90.18
51067;BME280;37112;45.892;-123.962;2023-03-21T08:15:44;101024.20;;;7.08;90.30
51067;BME280;37112;45.892;-123.962;2023-03-21T08:17:57;101024.78;;;7.03;90.31
51067;BME280;37112;45.892;-123.962;2023-03-21T08:20:13;101023.13;;;7.02;90.16
51067;BME280;37112;45.892;-123.962;2023-03-21T08:22:27;101024.05;;;7.00;90.23
51067;BME280;37112;45.892;-123.962;2023-03-21T08:24:40;101023.60;;;6.98;90.38
51067;BME280;37112;45.892;-123.962;2023-03-21T08:26:53;101022.88;;;6.95;90.18
51067;BME280;37112;45.892;-123.962;2023-03-21T08:29:06;101024.80;;;6.91;90.17
51067;BME280;37112;45.892;-123.962;2023-03-21T08:31:20;101025.43;;;6.89;90.17
51067;BME280;37112;45.892;-123.962;2023-03-21T08:33:33;101025.95;;;6.86;90.11
51067;BME280;37112;45.892;-123.962;2023-03-21T08:35:46;101025.02;;;6.83;90.08
51067;BME280;37112;45.892;-123.962;2023-03-21T08:37:59;101026.05;;;6.80;90.23
51067;BME280;37112;45.892;-123.962;2023-03-21T08:40:15;101024.92;;;6.78;89.99
51067;BME280;37112;45.892;-123.962;2023-03-21T08:42:28;101025.31;;;6.74;89.92
51067;BME280;37112;45.892;-123.962;2023-03-21T08:44:41;101025.48;;;6.69;89.91
51067;BME280;37112;45.892;-123.962;2023-03-21T08:46:55;101026.53;;;6.66;89.75
51067;BME280;37112;45.892;-123.962;2023-03-21T08:49:08;101026.70;;;6.62;90.03
51067;BME280;37112;45.892;-123.962;2023-03-21T08:51:21;101028.27;;;6.59;90.00
51067;BME280;37112;45.892;-123.962;2023-03-21T08:53:35;101027.97;;;6.54;89.89
51067;BME280;37112;45.892;-123.962;2023-03-21T08:55:47;101032.33;;;6.51;90.04
51067;BME280;37112;45.892;-123.962;2023-03-21T08:58:01;101032.42;;;6.49;90.10
51067;BME280;37112;45.892;-123.962;2023-03-21T09:00:16;101031.84;;;6.47;90.24
51067;BME280;37112;45.892;-123.962;2023-03-21T09:02:29;101032.12;;;6.44;90.21
51067;BME280;37112;45.892;-123.962;2023-03-21T09:04:43;101027.46;;;6.42;90.40
51067;BME280;37112;45.892;-123.962;2023-03-21T09:06:57;101027.85;;;6.41;90.40
51067;BME280;37112;45.892;-123.962;2023-03-21T09:09:10;101022.29;;;6.39;90.45
51067;BME280;37112;45.892;-123.962;2023-03-21T09:11:23;101022.16;;;6.38;90.28
51067;BME280;37112;45.892;-123.962;2023-03-21T09:13:41;101020.80;;;6.37;90.36
51067;BME280;37112;45.892;-123.962;2023-03-21T09:15:54;101025.20;;;6.37;90.46
51067;BME280;37112;45.892;-123.962;2023-03-21T09:18:07;101023.81;;;6.37;90.72
51067;BME280;37112;45.892;-123.962;2023-03-21T09:20:31;101027.34;;;6.37;90.50
51067;BME280;37112;45.892;-123.962;2023-03-21T09:22:49;101026.35;;;6.35;90.55
51067;BME280;37112;45.892;-123.962;2023-03-21T09:25:03;101028.79;;;6.32;90.28
51067;BME280;37112;45.892;-123.962;2023-03-21T09:27:20;101026.55;;;6.31;90.39
51067;BME280;37112;45.892;-123.962;2023-03-21T09:29:35;101028.31;;;6.31;90.55
51067;BME280;37112;45.892;-123.962;2023-03-21T09:31:48;101026.95;;;6.30;90.42
51067;BME280;37112;45.892;-123.962;2023-03-21T09:34:03;101025.95;;;6.28;90.48
51067;BME280;37112;45.892;-123.962;2023-03-21T09:36:16;101022.66;;;6.27;90.44
51067;BME280;37112;45.892;-123.962;2023-03-21T09:38:31;101019.76;;;6.25;90.66
51067;BME280;37112;45.892;-123.962;2023-03-21T09:41:00;101022.14;;;6.23;90.72
51067;BME280;37112;45.892;-123.962;2023-03-21T09:43:29;101017.64;;;6.21;90.67
51067;BME280;37112;45.892;-123.962;2023-03-21T09:45:51;101017.45;;;6.21;90.92
51067;BME280;37112;45.892;-123.962;2023-03-21T09:48:08;101017.09;;;6.22;91.02
51067;BME280;37112;45.892;-123.962;2023-03-21T09:50:30;101013.73;;;6.22;91.01
51067;BME280;37112;45.892;-123.962;2023-03-21T09:52:48;101015.04;;;6.20;90.81
51067;BME280;37112;45.892;-123.962;2023-03-21T09:55:02;101013.55;;;6.18;90.63
51067;BME280;37112;45.892;-123.962;2023-03-21T09:57:33;101015.26;;;6.15;90.60
51067;BME280;37112;45.892;-123.962;2023-03-21T09:59:49;101010.05;;;6.13;90.66
51067;BME280;37112;45.892;-123.962;2023-03-21T10:02:18;101004.05;;;6.10;90.60
51067;BME280;37112;45.892;-123.962;2023-03-21T10:04:34;101001.98;;;6.09;90.72
51067;BME280;37112;45.892;-123.962;2023-03-21T10:06:58;100995.70;;;6.07;90.70
51067;BME280;37112;45.892;-123.962;2023-03-21T10:09:17;100992.95;;;6.06;90.78
51067;BME280;37112;45.892;-123.962;2023-03-21T10:11:38;100994.48;;;6.03;90.70
51067;BME280;37112;45.892;-123.962;2023-03-21T10:13:56;100993.16;;;6.01;90.65
51067;BME280;37112;45.892;-123.962;2023-03-21T10:16:16;100994.19;;;5.97;90.42
51067;BME280;37112;45.892;-123.962;2023-03-21T10:18:32;100993.86;;;5.94;90.48
51067;BME280;37112;45.892;-123.962;2023-03-21T10:20:46;100995.38;;;5.90;90.36
51067;BME280;37112;45.892;-123.962;2023-03-21T10:23:00;100991.17;;;5.85;90.23
51067;BME280;37112;45.892;-123.962;2023-03-21T10:25:18;100988.42;;;5.83;90.24
51067;BME280;37112;45.892;-123.962;2023-03-21T10:27:34;100983.36;;;5.82;90.47
51067;BME280;37112;45.892;-123.962;2023-03-21T10:29:48;100983.42;;;5.81;90.47
51067;BME280;37112;45.892;-123.962;2023-03-21T10:32:04;100982.07;;;5.79;90.58
51067;BME280;37112;45.892;-123.962;2023-03-21T10:34:26;100984.40;;;5.79;90.66
51067;BME280;37112;45.892;-123.962;2023-03-21T10:36:42;100981.31;;;5.77;90.65
51067;BME280;37112;45.892;-123.962;2023-03-21T10:38:58;100985.38;;;5.77;90.86
51067;BME280;37112;45.892;-123.962;2023-03-21T10:41:12;100984.35;;;5.76;90.97
51067;BME280;37112;45.892;-123.962;2023-03-21T10:43:36;100984.23;;;5.75;91.09
51067;BME280;37112;45.892;-123.962;2023-03-21T10:45:50;100982.86;;;5.73;91.04
51067;BME280;37112;45.892;-123.962;2023-03-21T10:48:08;100981.64;;;5.73;91.12
51067;BME280;37112;45.892;-123.962;2023-03-21T10:50:22;100979.41;;;5.72;91.01
51067;BME280;37112;45.892;-123.962;2023-03-21T10:52:44;100980.00;;;5.71;91.01
51067;BME280;37112;45.892;-123.962;2023-03-21T10:55:14;100975.66;;;5.69;90.96
51067;BME280;37112;45.892;-123.962;2023-03-21T10:57:29;100973.95;;;5.68;90.91
51067;BME280;37112;45.892;-123.962;2023-03-21T10:59:44;100971.89;;;5.66;90.92
51067;BME280;37112;45.892;-123.962;2023-03-21T11:02:05;100971.77;;;5.65;90.97
51067;BME280;37112;45.892;-123.962;2023-03-21T11:04:21;100969.08;;;5.63;90.87
51067;BME280;37112;45.892;-123.962;2023-03-21T11:06:39;100965.85;;;5.59;90.74
51067;BME280;37112;45.892;-123.962;2023-03-21T11:08:58;100962.88;;;5.55;90.48
51067;BME280;37112;45.892;-123.962;2023-03-21T11:11:21;100960.19;;;5.52;90.56
51067;BME280;37112;45.892;-123.962;2023-03-21T11:13:40;100963.44;;;5.46;90.25
51067;BME280;37112;45.892;-123.962;2023-03-21T11:15:55;100958.23;;;5.40;90.12
51067;BME280;37112;45.892;-123.962;2023-03-21T11:18:19;100956.28;;;5.36;90.20
51067;BME280;37112;45.892;-123.962;2023-03-21T11:20:32;100950.61;;;5.33;90.34
51067;BME280;37112;45.892;-123.962;2023-03-21T11:22:46;100947.04;;;5.30;90.41
51067;BME280;37112;45.892;-123.962;2023-03-21T11:25:01;100942.22;;;5.27;90.52
51067;BME280;37112;45.892;-123.962;2023-03-21T11:27:17;100944.44;;;5.25;90.44
51067;BME280;37112;45.892;-123.962;2023-03-21T11:29:31;100944.05;;;5.21;90.29
51067;BME280;37112;45.892;-123.962;2023-03-21T11:31:46;100944.20;;;5.18;90.34
51067;BME280;37112;45.892;-123.962;2023-03-21T11:33:59;100943.34;;;5.17;90.53
51067;BME280;37112;45.892;-123.962;2023-03-21T11:36:34;100943.08;;;5.15;90.58
51067;BME280;37112;45.892;-123.962;2023-03-21T11:38:53;100940.36;;;5.13;90.36
51067;BME280;37112;45.892;-123.962;2023-03-21T11:41:09;100938.46;;;5.12;90.57
51067;BME280;37112;45.892;-123.962;2023-03-21T11:43:36;100934.50;;;5.10;90.69
51067;BME280;37112;45.892;-123.962;2023-03-21T11:46:01;100932.63;;;5.09;90.81
51067;BME280;37112;45.892;-123.962;2023-03-21T11:48:16;100930.42;;;5.07;90.86
51067;BME280;37112;45.892;-123.962;2023-03-21T11:50:36;100924.86;;;5.04;90.95